sensor_id;sensor_type;location;lat;lon;timestamp;temperature;humidity
36652;DHT22;53334;51.976;20.144;2022-10-29T00:01:33;26.80;54.70
36652;DHT22;53334;51.976;20.144;2022-10-29T00:04:08;26.70;55.00
36652;DHT22;53334;51.976;20.144;2022-10-29T00:06:42;26.80;55.30
36652;DHT22;53334;51.976;20.144;2022-10-29T00:09:16;26.80;55.50
36652;DHT22;53334;51.976;20.144;2022-10-29T00:11:50;26.70;55.80
36652;DHT22;53334;51.976;20.144;2022-10-29T00:14:23;26.80;56.10
36652;DHT22;53334;51.976;20.144;2022-10-29T00:16:57;26.70;56.40
36652;DHT22;53334;51.976;20.144;2022-10-29T00:19:32;26.70;56.50
36652;DHT22;53334;51.976;20.144;2022-10-29T00:22:06;26.80;56.70
36652;DHT22;53334;51.976;20.144;2022-10-29T00:24:39;26.70;57.00
36652;DHT22;53334;51.976;20.144;2022-10-29T00:27:13;26.70;57.30
36652;DHT22;53334;51.976;20.144;2022-10-29T00:29:47;26.70;57.30
36652;DHT22;53334;51.976;20.144;2022-10-29T00:32:20;26.70;57.60
36652;DHT22;53334;51.976;20.144;2022-10-29T00:34:56;26.70;57.80
36652;DHT22;53334;51.976;20.144;2022-10-29T00:37:29;26.70;57.90
36652;DHT22;53334;51.976;20.144;2022-10-29T00:40:03;26.70;58.10
36652;DHT22;53334;51.976;20.144;2022-10-29T00:42:37;26.70;58.20
36652;DHT22;53334;51.976;20.144;2022-10-29T00:45:20;26.70;58.30
36652;DHT22;53334;51.976;20.144;2022-10-29T00:47:53;26.70;58.40
36652;DHT22;53334;51.976;20.144;2022-10-29T00:50:29;26.70;58.50
36652;DHT22;53334;51.976;20.144;2022-10-29T00:53:03;26.70;58.60
36652;DHT22;53334;51.976;20.144;2022-10-29T00:55:37;26.70;58.70
36652;DHT22;53334;51.976;20.144;2022-10-29T00:58:11;26.70;58.70
36652;DHT22;53334;51.976;20.144;2022-10-29T01:00:45;26.70;58.80
36652;DHT22;53334;51.976;20.144;2022-10-29T01:03:18;26.70;58.90
36652;DHT22;53334;51.976;20.144;2022-10-29T01:05:53;26.70;59.00
36652;DHT22;53334;51.976;20.144;2022-10-29T01:08:27;26.70;59.20
36652;DHT22;53334;51.976;20.144;2022-10-29T01:11:03;26.70;59.20
36652;DHT22;53334;51.976;20.144;2022-10-29T01:13:44;26.70;59.40
36652;DHT22;53334;51.976;20.144;2022-10-29T01:16:22;26.60;59.40
36652;DHT22;53334;51.976;20.144;2022-10-29T01:19:00;26.70;59.60
36652;DHT22;53334;51.976;20.144;2022-10-29T01:21:42;26.70;59.70
36652;DHT22;53334;51.976;20.144;2022-10-29T01:24:27;26.70;59.80
36652;DHT22;53334;51.976;20.144;2022-10-29T01:27:30;26.60;59.80
36652;DHT22;53334;51.976;20.144;2022-10-29T01:30:11;26.70;60.00
36652;DHT22;53334;51.976;20.144;2022-10-29T01:32:54;26.60;59.90
36652;DHT22;53334;51.976;20.144;2022-10-29T01:35:34;26.70;60.10
36652;DHT22;53334;51.976;20.144;2022-10-29T01:38:15;26.60;60.10
36652;DHT22;53334;51.976;20.144;2022-10-29T01:40:52;26.70;60.20
36652;DHT22;53334;51.976;20.144;2022-10-29T01:43:30;26.60;60.20
36652;DHT22;53334;51.976;20.144;2022-10-29T01:46:07;26.70;60.40
36652;DHT22;53334;51.976;20.144;2022-10-29T01:48:44;26.60;60.30
36652;DHT22;53334;51.976;20.144;2022-10-29T01:51:21;26.60;60.40
36652;DHT22;53334;51.976;20.144;2022-10-29T01:53:56;26.60;60.40
36652;DHT22;53334;51.976;20.144;2022-10-29T01:56:30;26.60;60.40
36652;DHT22;53334;51.976;20.144;2022-10-29T01:59:04;26.60;60.40
36652;DHT22;53334;51.976;20.144;2022-10-29T02:01:56;26.60;60.40
36652;DHT22;53334;51.976;20.144;2022-10-29T02:04:44;26.60;60.40
36652;DHT22;53334;51.976;20.144;2022-10-29T02:07:24;26.60;60.40
36652;DHT22;53334;51.976;20.144;2022-10-29T02:10:01;26.70;60.60
36652;DHT22;53334;51.976;20.144;2022-10-29T02:12:38;26.60;60.60
36652;DHT22;53334;51.976;20.144;2022-10-29T02:15:14;26.60;60.60
36652;DHT22;53334;51.976;20.144;2022-10-29T02:17:48;26.60;60.70
36652;DHT22;53334;51.976;20.144;2022-10-29T02:20:24;26.60;60.70
36652;DHT22;53334;51.976;20.144;2022-10-29T02:22:57;26.60;60.70
36652;DHT22;53334;51.976;20.144;2022-10-29T02:25:31;26.60;60.80
36652;DHT22;53334;51.976;20.144;2022-10-29T02:28:04;26.60;60.90
36652;DHT22;53334;51.976;20.144;2022-10-29T02:30:38;26.60;60.80
36652;DHT22;53334;51.976;20.144;2022-10-29T02:33:12;26.60;60.90
36652;DHT22;53334;51.976;20.144;2022-10-29T02:35:47;26.60;61.00
36652;DHT22;53334;51.976;20.144;2022-10-29T02:38:20;26.60;61.00
36652;DHT22;53334;51.976;20.144;2022-10-29T02:40:54;26.60;60.90
36652;DHT22;53334;51.976;20.144;2022-10-29T02:43:27;26.60;60.90
36652;DHT22;53334;51.976;20.144;2022-10-29T02:46:10;26.60;61.00
36652;DHT22;53334;51.976;20.144;2022-10-29T02:48:44;26.60;61.00
36652;DHT22;53334;51.976;20.144;2022-10-29T02:51:19;26.60;61.00
36652;DHT22;53334;51.976;20.144;2022-10-29T02:53:53;26.60;61.00
36652;DHT22;53334;51.976;20.144;2022-10-29T02:56:27;26.60;61.00
36652;DHT22;53334;51.976;20.144;2022-10-29T02:59:00;26.60;61.00
36652;DHT22;53334;51.976;20.144;2022-10-29T03:01:38;26.60;61.00
36652;DHT22;53334;51.976;20.144;2022-10-29T03:04:12;26.60;61.00
36652;DHT22;53334;51.976;20.144;2022-10-29T03:06:47;26.60;61.10
36652;DHT22;53334;51.976;20.144;2022-10-29T03:09:21;26.60;61.10
36652;DHT22;53334;51.976;20.144;2022-10-29T03:11:54;26.60;61.10
36652;DHT22;53334;51.976;20.144;2022-10-29T03:14:28;26.60;61.10
36652;DHT22;53334;51.976;20.144;2022-10-29T03:17:01;26.60;61.20
36652;DHT22;53334;51.976;20.144;2022-10-29T03:19:35;26.60;61.20
36652;DHT22;53334;51.976;20.144;2022-10-29T03:22:10;26.60;61.20
36652;DHT22;53334;51.976;20.144;2022-10-29T03:24:43;26.60;61.20
36652;DHT22;53334;51.976;20.144;2022-10-29T03:27:17;26.60;61.20
36652;DHT22;53334;51.976;20.144;2022-10-29T03:29:50;26.60;61.20
36652;DHT22;53334;51.976;20.144;2022-10-29T03:32:24;26.60;61.20
36652;DHT22;53334;51.976;20.144;2022-10-29T03:34:58;26.60;61.30
36652;DHT22;53334;51.976;20.144;2022-10-29T03:37:33;26.60;61.30
36652;DHT22;53334;51.976;20.144;2022-10-29T03:40:07;26.60;61.30
36652;DHT22;53334;51.976;20.144;2022-10-29T03:42:40;26.60;61.30
36652;DHT22;53334;51.976;20.144;2022-10-29T03:45:14;26.60;61.30
36652;DHT22;53334;51.976;20.144;2022-10-29T03:47:48;26.60;61.40
36652;DHT22;53334;51.976;20.144;2022-10-29T03:50:21;26.60;61.40
36652;DHT22;53334;51.976;20.144;2022-10-29T03:52:56;26.60;61.40
36652;DHT22;53334;51.976;20.144;2022-10-29T03:55:30;26.60;61.50
36652;DHT22;53334;51.976;20.144;2022-10-29T03:58:03;26.60;61.50
36652;DHT22;53334;51.976;20.144;2022-10-29T04:00:37;26.60;61.50
36652;DHT22;53334;51.976;20.144;2022-10-29T04:03:10;26.60;61.50
36652;DHT22;53334;51.976;20.144;2022-10-29T04:05:44;26.60;61.60
36652;DHT22;53334;51.976;20.144;2022-10-29T04:08:19;26.60;61.60
36652;DHT22;53334;51.976;20.144;2022-10-29T04:10:53;26.60;61.60
36652;DHT22;53334;51.976;20.144;2022-10-29T04:13:26;26.60;61.60
36652;DHT22;53334;51.976;20.144;2022-10-29T04:16:00;26.60;61.60
36652;DHT22;53334;51.976;20.144;2022-10-29T04:18:34;26.60;61.60
36652;DHT22;53334;51.976;20.144;2022-10-29T04:21:08;26.60;61.50
36652;DHT22;53334;51.976;20.144;2022-10-29T04:24:03;26.60;61.50
36652;DHT22;53334;51.976;20.144;2022-10-29T04:26:57;26.60;61.60
36652;DHT22;53334;51.976;20.144;2022-10-29T04:29:50;26.60;61.60
36652;DHT22;53334;51.976;20.144;2022-10-29T04:32:24;26.60;61.60
36652;DHT22;53334;51.976;20.144;2022-10-29T04:34:57;26.60;61.60
36652;DHT22;53334;51.976;20.144;2022-10-29T04:37:31;26.60;61.60
36652;DHT22;53334;51.976;20.144;2022-10-29T04:40:06;26.60;61.60
36652;DHT22;53334;51.976;20.144;2022-10-29T04:42:40;26.60;61.70
36652;DHT22;53334;51.976;20.144;2022-10-29T04:45:14;26.60;61.70
36652;DHT22;53334;51.976;20.144;2022-10-29T04:47:48;26.60;61.70
36652;DHT22;53334;51.976;20.144;2022-10-29T04:50:30;26.60;61.80
36652;DHT22;53334;51.976;20.144;2022-10-29T04:53:04;26.60;61.80
36652;DHT22;53334;51.976;20.144;2022-10-29T04:55:40;26.60;61.80
36652;DHT22;53334;51.976;20.144;2022-10-29T04:58:14;26.60;61.80
36652;DHT22;53334;51.976;20.144;2022-10-29T05:00:47;26.60;61.80
36652;DHT22;53334;51.976;20.144;2022-10-29T05:03:21;26.60;61.80
36652;DHT22;53334;51.976;20.144;2022-10-29T05:05:55;26.60;61.80
36652;DHT22;53334;51.976;20.144;2022-10-29T05:08:28;26.60;61.80
36652;DHT22;53334;51.976;20.144;2022-10-29T05:11:04;26.60;61.80
36652;DHT22;53334;51.976;20.144;2022-10-29T05:13:37;26.60;61.80
36652;DHT22;53334;51.976;20.144;2022-10-29T05:16:11;26.60;61.90
36652;DHT22;53334;51.976;20.144;2022-10-29T05:18:45;26.60;61.90
36652;DHT22;53334;51.976;20.144;2022-10-29T05:21:19;26.60;61.90
36652;DHT22;53334;51.976;20.144;2022-10-29T05:23:52;26.60;62.00
36652;DHT22;53334;51.976;20.144;2022-10-29T05:26:28;26.60;62.00
36652;DHT22;53334;51.976;20.144;2022-10-29T05:29:02;26.60;62.00
36652;DHT22;53334;51.976;20.144;2022-10-29T05:31:36;26.60;62.00
36652;DHT22;53334;51.976;20.144;2022-10-29T05:34:09;26.60;62.00
36652;DHT22;53334;51.976;20.144;2022-10-29T05:36:43;26.60;62.00
36652;DHT22;53334;51.976;20.144;2022-10-29T05:39:17;26.60;62.00
36652;DHT22;53334;51.976;20.144;2022-10-29T05:41:52;26.60;61.90
36652;DHT22;53334;51.976;20.144;2022-10-29T05:44:26;26.60;62.00
36652;DHT22;53334;51.976;20.144;2022-10-29T05:46:59;26.60;61.70
36652;DHT22;53334;51.976;20.144;2022-10-29T05:49:33;26.60;61.20
36652;DHT22;53334;51.976;20.144;2022-10-29T05:52:07;26.60;60.70
36652;DHT22;53334;51.976;20.144;2022-10-29T05:54:40;26.60;60.20
36652;DHT22;53334;51.976;20.144;2022-10-29T05:57:15;26.60;60.20
36652;DHT22;53334;51.976;20.144;2022-10-29T05:59:49;26.60;59.50
36652;DHT22;53334;51.976;20.144;2022-10-29T06:02:23;26.60;59.00
36652;DHT22;53334;51.976;20.144;2022-10-29T06:04:56;26.60;59.20
36652;DHT22;53334;51.976;20.144;2022-10-29T06:07:30;26.60;58.80
36652;DHT22;53334;51.976;20.144;2022-10-29T06:10:05;26.60;58.30
36652;DHT22;53334;51.976;20.144;2022-10-29T06:12:40;26.60;55.50
36652;DHT22;53334;51.976;20.144;2022-10-29T06:15:14;26.50;51.40
36652;DHT22;53334;51.976;20.144;2022-10-29T06:17:48;26.50;50.50
36652;DHT22;53334;51.976;20.144;2022-10-29T06:20:22;26.50;52.00
36652;DHT22;53334;51.976;20.144;2022-10-29T06:22:56;26.50;53.50
36652;DHT22;53334;51.976;20.144;2022-10-29T06:25:30;26.50;53.50
36652;DHT22;53334;51.976;20.144;2022-10-29T06:28:06;26.50;53.70
36652;DHT22;53334;51.976;20.144;2022-10-29T06:30:39;26.50;53.80
36652;DHT22;53334;51.976;20.144;2022-10-29T06:33:14;26.40;53.30
36652;DHT22;53334;51.976;20.144;2022-10-29T06:35:47;26.50;53.50
36652;DHT22;53334;51.976;20.144;2022-10-29T06:38:21;26.50;53.50
36652;DHT22;53334;51.976;20.144;2022-10-29T06:40:55;26.50;53.70
36652;DHT22;53334;51.976;20.144;2022-10-29T06:43:30;26.50;53.70
36652;DHT22;53334;51.976;20.144;2022-10-29T06:46:04;26.50;53.60
36652;DHT22;53334;51.976;20.144;2022-10-29T06:48:38;26.50;53.30
36652;DHT22;53334;51.976;20.144;2022-10-29T06:51:11;26.50;53.40
36652;DHT22;53334;51.976;20.144;2022-10-29T06:53:45;26.60;53.10
36652;DHT22;53334;51.976;20.144;2022-10-29T06:56:20;26.60;52.90
36652;DHT22;53334;51.976;20.144;2022-10-29T06:58:55;26.60;52.60
36652;DHT22;53334;51.976;20.144;2022-10-29T07:01:29;26.60;52.50
36652;DHT22;53334;51.976;20.144;2022-10-29T07:04:04;26.60;52.30
36652;DHT22;53334;51.976;20.144;2022-10-29T07:06:38;26.60;51.60
36652;DHT22;53334;51.976;20.144;2022-10-29T07:09:12;26.60;51.50
36652;DHT22;53334;51.976;20.144;2022-10-29T07:11:46;26.60;51.30
36652;DHT22;53334;51.976;20.144;2022-10-29T07:14:21;26.60;51.20
36652;DHT22;53334;51.976;20.144;2022-10-29T07:16:54;26.60;51.20
36652;DHT22;53334;51.976;20.144;2022-10-29T07:19:28;26.60;51.50
36652;DHT22;53334;51.976;20.144;2022-10-29T07:22:02;26.70;51.00
36652;DHT22;53334;51.976;20.144;2022-10-29T07:24:36;26.70;50.20
36652;DHT22;53334;51.976;20.144;2022-10-29T07:27:09;26.70;50.00
36652;DHT22;53334;51.976;20.144;2022-10-29T07:29:45;26.70;49.80
36652;DHT22;53334;51.976;20.144;2022-10-29T07:32:18;26.80;49.80
36652;DHT22;53334;51.976;20.144;2022-10-29T07:34:52;26.80;49.60
36652;DHT22;53334;51.976;20.144;2022-10-29T07:37:26;26.80;49.40
36652;DHT22;53334;51.976;20.144;2022-10-29T07:39:59;26.90;49.50
36652;DHT22;53334;51.976;20.144;2022-10-29T07:42:33;26.90;49.50
36652;DHT22;53334;51.976;20.144;2022-10-29T07:45:09;26.90;49.50
36652;DHT22;53334;51.976;20.144;2022-10-29T07:47:42;26.90;49.50
36652;DHT22;53334;51.976;20.144;2022-10-29T07:50:16;26.90;49.40
36652;DHT22;53334;51.976;20.144;2022-10-29T07:52:49;26.90;49.00
36652;DHT22;53334;51.976;20.144;2022-10-29T07:55:23;26.90;49.20
36652;DHT22;53334;51.976;20.144;2022-10-29T07:57:56;26.90;49.40
36652;DHT22;53334;51.976;20.144;2022-10-29T08:00:34;26.90;48.90
36652;DHT22;53334;51.976;20.144;2022-10-29T08:03:09;26.90;49.00
36652;DHT22;53334;51.976;20.144;2022-10-29T08:05:42;26.90;49.00
36652;DHT22;53334;51.976;20.144;2022-10-29T08:08:16;26.90;48.90
36652;DHT22;53334;51.976;20.144;2022-10-29T08:10:50;26.80;48.70
36652;DHT22;53334;51.976;20.144;2022-10-29T08:13:24;26.80;49.00
36652;DHT22;53334;51.976;20.144;2022-10-29T08:15:59;26.80;48.90
36652;DHT22;53334;51.976;20.144;2022-10-29T08:18:32;26.80;48.90
36652;DHT22;53334;51.976;20.144;2022-10-29T08:21:06;26.80;48.60
36652;DHT22;53334;51.976;20.144;2022-10-29T08:23:40;26.80;48.70
36652;DHT22;53334;51.976;20.144;2022-10-29T08:26:13;26.80;48.70
36652;DHT22;53334;51.976;20.144;2022-10-29T08:28:47;26.70;48.40
36652;DHT22;53334;51.976;20.144;2022-10-29T08:31:22;26.70;48.40
36652;DHT22;53334;51.976;20.144;2022-10-29T08:33:56;26.70;48.50
36652;DHT22;53334;51.976;20.144;2022-10-29T08:36:29;26.70;48.70
36652;DHT22;53334;51.976;20.144;2022-10-29T08:39:03;26.70;48.50
36652;DHT22;53334;51.976;20.144;2022-10-29T08:41:40;26.70;48.70
36652;DHT22;53334;51.976;20.144;2022-10-29T08:44:23;26.70;48.60
36652;DHT22;53334;51.976;20.144;2022-10-29T08:47:06;26.70;48.70
36652;DHT22;53334;51.976;20.144;2022-10-29T08:49:42;26.70;48.70
36652;DHT22;53334;51.976;20.144;2022-10-29T08:52:19;26.70;48.70
36652;DHT22;53334;51.976;20.144;2022-10-29T08:54:57;26.60;48.70
36652;DHT22;53334;51.976;20.144;2022-10-29T08:57:37;26.60;48.60
36652;DHT22;53334;51.976;20.144;2022-10-29T09:00:15;26.60;48.50
36652;DHT22;53334;51.976;20.144;2022-10-29T09:02:53;26.60;48.60
36652;DHT22;53334;51.976;20.144;2022-10-29T09:05:29;26.60;48.60
36652;DHT22;53334;51.976;20.144;2022-10-29T09:08:09;26.60;48.70
36652;DHT22;53334;51.976;20.144;2022-10-29T09:10:49;26.60;48.50
36652;DHT22;53334;51.976;20.144;2022-10-29T09:13:26;26.60;48.50
36652;DHT22;53334;51.976;20.144;2022-10-29T09:16:10;26.60;48.40
36652;DHT22;53334;51.976;20.144;2022-10-29T09:18:53;26.70;48.50
36652;DHT22;53334;51.976;20.144;2022-10-29T09:21:30;26.60;48.40
36652;DHT22;53334;51.976;20.144;2022-10-29T09:24:07;26.70;48.40
36652;DHT22;53334;51.976;20.144;2022-10-29T09:26:50;26.70;48.40
36652;DHT22;53334;51.976;20.144;2022-10-29T09:29:34;26.70;48.60
36652;DHT22;53334;51.976;20.144;2022-10-29T09:32:12;26.70;48.60
36652;DHT22;53334;51.976;20.144;2022-10-29T09:34:49;26.70;48.80
36652;DHT22;53334;51.976;20.144;2022-10-29T09:37:26;26.70;48.90
36652;DHT22;53334;51.976;20.144;2022-10-29T09:40:03;26.80;49.10
36652;DHT22;53334;51.976;20.144;2022-10-29T09:42:38;26.70;49.10
36652;DHT22;53334;51.976;20.144;2022-10-29T09:45:14;26.80;49.30
36652;DHT22;53334;51.976;20.144;2022-10-29T09:47:52;26.80;49.50
36652;DHT22;53334;51.976;20.144;2022-10-29T09:50:28;26.80;49.70
36652;DHT22;53334;51.976;20.144;2022-10-29T09:53:04;26.80;49.90
36652;DHT22;53334;51.976;20.144;2022-10-29T09:55:40;26.90;50.20
36652;DHT22;53334;51.976;20.144;2022-10-29T09:58:16;26.80;50.00
36652;DHT22;53334;51.976;20.144;2022-10-29T10:00:51;26.90;50.10
36652;DHT22;53334;51.976;20.144;2022-10-29T10:03:26;26.90;51.00
36652;DHT22;53334;51.976;20.144;2022-10-29T10:06:03;26.90;51.20
36652;DHT22;53334;51.976;20.144;2022-10-29T10:08:56;26.90;51.30
36652;DHT22;53334;51.976;20.144;2022-10-29T10:11:33;26.90;52.20
36652;DHT22;53334;51.976;20.144;2022-10-29T10:14:12;26.90;52.00
36652;DHT22;53334;51.976;20.144;2022-10-29T10:16:48;26.90;51.80
36652;DHT22;53334;51.976;20.144;2022-10-29T10:19:30;26.90;51.90
36652;DHT22;53334;51.976;20.144;2022-10-29T10:22:15;26.90;53.00
36652;DHT22;53334;51.976;20.144;2022-10-29T10:24:49;26.90;52.20
36652;DHT22;53334;51.976;20.144;2022-10-29T10:27:24;26.90;52.70
36652;DHT22;53334;51.976;20.144;2022-10-29T10:30:07;26.90;52.70
36652;DHT22;53334;51.976;20.144;2022-10-29T10:32:43;26.90;53.00
36652;DHT22;53334;51.976;20.144;2022-10-29T10:35:24;26.90;52.30
36652;DHT22;53334;51.976;20.144;2022-10-29T10:38:00;26.90;52.60
36652;DHT22;53334;51.976;20.144;2022-10-29T10:40:39;26.90;52.50
36652;DHT22;53334;51.976;20.144;2022-10-29T10:43:16;26.80;52.40
36652;DHT22;53334;51.976;20.144;2022-10-29T10:45:52;26.80;52.40
36652;DHT22;53334;51.976;20.144;2022-10-29T10:48:26;26.80;52.30
36652;DHT22;53334;51.976;20.144;2022-10-29T10:51:08;26.80;52.30
36652;DHT22;53334;51.976;20.144;2022-10-29T10:53:43;26.80;52.40
36652;DHT22;53334;51.976;20.144;2022-10-29T10:56:17;26.80;52.60
36652;DHT22;53334;51.976;20.144;2022-10-29T10:58:54;26.80;53.20
36652;DHT22;53334;51.976;20.144;2022-10-29T11:01:30;26.80;53.60
36652;DHT22;53334;51.976;20.144;2022-10-29T11:04:08;26.80;54.10
36652;DHT22;53334;51.976;20.144;2022-10-29T11:06:45;26.90;55.50
36652;DHT22;53334;51.976;20.144;2022-10-29T11:09:23;26.90;54.10
36652;DHT22;53334;51.976;20.144;2022-10-29T11:11:58;26.90;54.30
36652;DHT22;53334;51.976;20.144;2022-10-29T11:14:34;26.90;54.50
36652;DHT22;53334;51.976;20.144;2022-10-29T11:17:13;26.90;55.00
36652;DHT22;53334;51.976;20.144;2022-10-29T11:19:52;26.90;55.70
36652;DHT22;53334;51.976;20.144;2022-10-29T11:22:28;27.00;59.90
36652;DHT22;53334;51.976;20.144;2022-10-29T11:25:07;27.00;58.70
36652;DHT22;53334;51.976;20.144;2022-10-29T11:27:47;27.00;58.00
36652;DHT22;53334;51.976;20.144;2022-10-29T11:30:24;27.00;57.80
36652;DHT22;53334;51.976;20.144;2022-10-29T11:33:00;27.00;56.80
36652;DHT22;53334;51.976;20.144;2022-10-29T11:35:35;27.00;56.20
36652;DHT22;53334;51.976;20.144;2022-10-29T11:38:12;27.00;55.00
36652;DHT22;53334;51.976;20.144;2022-10-29T11:40:48;27.00;55.10
36652;DHT22;53334;51.976;20.144;2022-10-29T11:43:24;27.00;55.00
36652;DHT22;53334;51.976;20.144;2022-10-29T11:46:00;27.00;54.90
36652;DHT22;53334;51.976;20.144;2022-10-29T11:48:41;27.00;54.60
36652;DHT22;53334;51.976;20.144;2022-10-29T11:51:20;27.00;55.00
36652;DHT22;53334;51.976;20.144;2022-10-29T11:53:59;26.90;54.70
36652;DHT22;53334;51.976;20.144;2022-10-29T11:56:42;26.90;54.70
36652;DHT22;53334;51.976;20.144;2022-10-29T11:59:24;26.90;54.60
36652;DHT22;53334;51.976;20.144;2022-10-29T12:02:02;26.90;54.80
36652;DHT22;53334;51.976;20.144;2022-10-29T12:04:39;26.90;54.90
36652;DHT22;53334;51.976;20.144;2022-10-29T12:07:21;26.90;54.90
36652;DHT22;53334;51.976;20.144;2022-10-29T12:10:14;26.90;55.00
36652;DHT22;53334;51.976;20.144;2022-10-29T12:12:55;26.90;54.90
36652;DHT22;53334;51.976;20.144;2022-10-29T12:15:31;26.90;54.90
36652;DHT22;53334;51.976;20.144;2022-10-29T12:18:11;26.90;55.10
36652;DHT22;53334;51.976;20.144;2022-10-29T12:20:49;26.90;55.10
36652;DHT22;53334;51.976;20.144;2022-10-29T12:23:28;26.80;55.00
36652;DHT22;53334;51.976;20.144;2022-10-29T12:26:06;26.80;55.10
36652;DHT22;53334;51.976;20.144;2022-10-29T12:28:45;26.90;55.10
36652;DHT22;53334;51.976;20.144;2022-10-29T12:31:23;26.80;55.10
36652;DHT22;53334;51.976;20.144;2022-10-29T12:34:00;26.90;55.30
36652;DHT22;53334;51.976;20.144;2022-10-29T12:36:37;26.90;55.40
36652;DHT22;53334;51.976;20.144;2022-10-29T12:39:26;26.90;55.30
36652;DHT22;53334;51.976;20.144;2022-10-29T12:42:02;26.80;55.30
36652;DHT22;53334;51.976;20.144;2022-10-29T12:44:40;26.80;54.90
36652;DHT22;53334;51.976;20.144;2022-10-29T12:47:17;26.80;55.10
36652;DHT22;53334;51.976;20.144;2022-10-29T12:49:55;26.80;55.20
36652;DHT22;53334;51.976;20.144;2022-10-29T12:52:33;26.80;55.30
36652;DHT22;53334;51.976;20.144;2022-10-29T12:55:10;26.80;55.00
36652;DHT22;53334;51.976;20.144;2022-10-29T12:57:45;26.80;55.30
36652;DHT22;53334;51.976;20.144;2022-10-29T13:09:13;26.80;55.30
36652;DHT22;53334;51.976;20.144;2022-10-29T13:11:48;26.80;54.90
36652;DHT22;53334;51.976;20.144;2022-10-29T13:14:23;26.80;54.90
36652;DHT22;53334;51.976;20.144;2022-10-29T13:16:57;26.80;55.00
36652;DHT22;53334;51.976;20.144;2022-10-29T13:19:35;26.80;54.70
36652;DHT22;53334;51.976;20.144;2022-10-29T13:27:56;26.80;54.60
36652;DHT22;53334;51.976;20.144;2022-10-29T13:30:29;26.80;54.70
36652;DHT22;53334;51.976;20.144;2022-10-29T13:33:47;26.70;54.80
36652;DHT22;53334;51.976;20.144;2022-10-29T13:36:03;26.70;54.50
36652;DHT22;53334;51.976;20.144;2022-10-29T13:38:39;26.70;53.60
36652;DHT22;53334;51.976;20.144;2022-10-29T13:41:34;26.70;53.00
36652;DHT22;53334;51.976;20.144;2022-10-29T13:44:13;26.70;52.60
36652;DHT22;53334;51.976;20.144;2022-10-29T13:46:49;26.70;52.20
36652;DHT22;53334;51.976;20.144;2022-10-29T13:49:26;26.70;51.80
36652;DHT22;53334;51.976;20.144;2022-10-29T13:52:02;26.70;51.70
36652;DHT22;53334;51.976;20.144;2022-10-29T13:54:37;26.60;51.40
36652;DHT22;53334;51.976;20.144;2022-10-29T13:57:14;26.60;51.40
36652;DHT22;53334;51.976;20.144;2022-10-29T13:59:52;26.60;51.20
36652;DHT22;53334;51.976;20.144;2022-10-29T14:02:36;26.60;51.40
36652;DHT22;53334;51.976;20.144;2022-10-29T14:05:18;26.60;51.30
36652;DHT22;53334;51.976;20.144;2022-10-29T14:07:53;26.60;51.30
36652;DHT22;53334;51.976;20.144;2022-10-29T14:10:29;26.60;51.20
36652;DHT22;53334;51.976;20.144;2022-10-29T14:13:06;26.60;51.10
36652;DHT22;53334;51.976;20.144;2022-10-29T14:18:45;26.50;50.70
36652;DHT22;53334;51.976;20.144;2022-10-29T14:21:21;26.50;50.70
36652;DHT22;53334;51.976;20.144;2022-10-29T14:23:56;26.50;50.70
36652;DHT22;53334;51.976;20.144;2022-10-29T14:26:30;26.50;50.70
36652;DHT22;53334;51.976;20.144;2022-10-29T14:29:16;26.50;50.40
36652;DHT22;53334;51.976;20.144;2022-10-29T14:32:02;26.50;50.50
36652;DHT22;53334;51.976;20.144;2022-10-29T14:34:38;26.40;50.50
36652;DHT22;53334;51.976;20.144;2022-10-29T14:37:12;26.50;50.50
36652;DHT22;53334;51.976;20.144;2022-10-29T14:39:48;26.40;50.20
36652;DHT22;53334;51.976;20.144;2022-10-29T14:42:31;26.40;50.10
36652;DHT22;53334;51.976;20.144;2022-10-29T14:45:06;26.40;50.30
36652;DHT22;53334;51.976;20.144;2022-10-29T14:47:40;26.40;50.10
36652;DHT22;53334;51.976;20.144;2022-10-29T14:50:16;26.40;50.10
36652;DHT22;53334;51.976;20.144;2022-10-29T14:52:51;26.40;50.30
36652;DHT22;53334;51.976;20.144;2022-10-29T14:55:27;26.40;50.20
36652;DHT22;53334;51.976;20.144;2022-10-29T14:58:03;26.40;50.80
36652;DHT22;53334;51.976;20.144;2022-10-29T15:00:37;26.40;51.00
36652;DHT22;53334;51.976;20.144;2022-10-29T15:03:13;26.40;51.20
36652;DHT22;53334;51.976;20.144;2022-10-29T15:06:04;26.40;51.30
36652;DHT22;53334;51.976;20.144;2022-10-29T15:08:42;26.40;51.40
36652;DHT22;53334;51.976;20.144;2022-10-29T15:11:34;26.40;51.30
36652;DHT22;53334;51.976;20.144;2022-10-29T15:14:23;26.40;51.50
36652;DHT22;53334;51.976;20.144;2022-10-29T15:16:58;26.40;51.90
36652;DHT22;53334;51.976;20.144;2022-10-29T15:19:31;26.40;52.10
36652;DHT22;53334;51.976;20.144;2022-10-29T15:22:09;26.40;52.30
36652;DHT22;53334;51.976;20.144;2022-10-29T15:24:43;26.40;52.40
36652;DHT22;53334;51.976;20.144;2022-10-29T15:27:16;26.50;52.50
36652;DHT22;53334;51.976;20.144;2022-10-29T15:29:49;26.40;52.50
36652;DHT22;53334;51.976;20.144;2022-10-29T15:32:23;26.50;52.60
36652;DHT22;53334;51.976;20.144;2022-10-29T15:35:01;26.40;52.70
36652;DHT22;53334;51.976;20.144;2022-10-29T15:37:41;26.50;52.90
36652;DHT22;53334;51.976;20.144;2022-10-29T15:40:17;26.50;53.00
36652;DHT22;53334;51.976;20.144;2022-10-29T15:42:50;26.50;53.10
36652;DHT22;53334;51.976;20.144;2022-10-29T15:45:24;26.50;53.10
36652;DHT22;53334;51.976;20.144;2022-10-29T15:48:25;26.50;53.20
36652;DHT22;53334;51.976;20.144;2022-10-29T15:50:51;26.50;53.40
36652;DHT22;53334;51.976;20.144;2022-10-29T15:53:25;26.50;53.40
36652;DHT22;53334;51.976;20.144;2022-10-29T15:55:58;26.60;53.50
36652;DHT22;53334;51.976;20.144;2022-10-29T15:58:31;26.50;53.30
36652;DHT22;53334;51.976;20.144;2022-10-29T16:01:04;26.50;53.40
36652;DHT22;53334;51.976;20.144;2022-10-29T16:03:38;26.50;53.50
36652;DHT22;53334;51.976;20.144;2022-10-29T16:06:11;26.60;53.70
36652;DHT22;53334;51.976;20.144;2022-10-29T16:08:46;26.50;53.70
36652;DHT22;53334;51.976;20.144;2022-10-29T16:11:20;26.60;53.90
36652;DHT22;53334;51.976;20.144;2022-10-29T16:13:53;26.60;53.90
36652;DHT22;53334;51.976;20.144;2022-10-29T16:16:27;26.60;54.00
36652;DHT22;53334;51.976;20.144;2022-10-29T16:19:02;26.60;54.00
36652;DHT22;53334;51.976;20.144;2022-10-29T16:21:34;26.60;54.00
36652;DHT22;53334;51.976;20.144;2022-10-29T16:24:09;26.60;54.10
36652;DHT22;53334;51.976;20.144;2022-10-29T16:26:43;26.60;54.20
36652;DHT22;53334;51.976;20.144;2022-10-29T16:29:16;26.60;54.20